createdAt,value
2023-12-30T00:01:02.245Z,99999.36
2023-12-30T00:03:29.356Z,99991.66
2023-12-30T00:05:56.498Z,99993.88
2023-12-30T00:08:23.052Z,99996.10
2023-12-30T00:10:49.589Z,99998.34
2023-12-30T00:13:16.323Z,99992.68
2023-12-30T00:15:43.221Z,99989.42
2023-12-30T00:18:09.767Z,99988.92
2023-12-30T00:20:36.693Z,99991.13
2023-12-30T00:23:03.810Z,99991.13
2023-12-30T00:25:30.973Z,99996.45
2023-12-30T00:27:57.631Z,99992.67
2023-12-30T00:30:25.274Z,99990.63
2023-12-30T00:32:52.237Z,99993.36
2023-12-30T00:35:19.481Z,99989.41
2023-12-30T00:37:46.906Z,99989.92
2023-12-30T00:40:14.988Z,99993.19
2023-12-30T00:42:43.723Z,99991.30
2023-12-30T00:45:10.510Z,99991.29
2023-12-30T00:47:36.996Z,99996.61
2023-12-30T00:50:04.513Z,99999.00
2023-12-30T00:52:31.695Z,99996.44
2023-12-30T00:54:58.790Z,99994.55
2023-12-30T00:57:25.411Z,99998.83
2023-12-30T00:59:51.914Z,100000.70
2023-12-30T01:02:19.937Z,100004.47
2023-12-30T01:04:47.100Z,100002.92
2023-12-30T01:07:14.444Z,100002.42
2023-12-30T01:09:42.504Z,100001.55
2023-12-30T01:12:08.991Z,100002.77
2023-12-30T01:14:35.763Z,100006.02
2023-12-30T01:17:02.265Z,100008.75
2023-12-30T01:19:28.788Z,100008.08
2023-12-30T01:21:55.727Z,100007.90
2023-12-30T01:24:22.391Z,100009.43
2023-12-30T01:26:49.697Z,100016.95
2023-12-30T01:29:17.093Z,100027.74
2023-12-30T01:31:44.340Z,100027.05
2023-12-30T01:34:11.126Z,100030.14
2023-12-30T01:36:38.129Z,100029.80
2023-12-30T01:39:04.652Z,100038.88
2023-12-30T01:41:33.098Z,100036.64
2023-12-30T01:44:00.067Z,100040.59
2023-12-30T01:46:27.324Z,100039.21
2023-12-30T01:48:55.297Z,100045.55
2023-12-30T01:51:25.210Z,100041.80
2023-12-30T01:53:55.093Z,100045.22
2023-12-30T01:56:23.742Z,100048.81
2023-12-30T01:58:51.454Z,100050.70
2023-12-30T02:01:20.688Z,100052.06
2023-12-30T02:03:48.109Z,100051.21
2023-12-30T02:06:14.865Z,100056.17
2023-12-30T02:08:42.152Z,100067.64
2023-12-30T02:11:09.539Z,100064.75
2023-12-30T02:13:36.097Z,100063.71
2023-12-30T02:16:03.420Z,100065.42
2023-12-30T02:18:30.327Z,100069.19
2023-12-30T02:20:57.167Z,100063.37
2023-12-30T02:23:23.805Z,100062.35
2023-12-30T02:25:50.368Z,100067.66
2023-12-30T02:28:17.980Z,100059.95
2023-12-30T02:30:44.820Z,100056.35
2023-12-30T02:33:11.706Z,100051.55
2023-12-30T02:35:38.465Z,100050.02
2023-12-30T02:38:06.318Z,100048.83
2023-12-30T02:40:32.988Z,100066.45
2023-12-30T02:42:59.998Z,100057.38
2023-12-30T02:45:27.427Z,100056.02
2023-12-30T02:47:54.182Z,100052.77
2023-12-30T02:50:21.175Z,100054.98
2023-12-30T02:52:47.707Z,100057.73
2023-12-30T02:55:14.564Z,100063.38
2023-12-30T02:57:48.824Z,100056.36
2023-12-30T03:00:19.056Z,100069.52
2023-12-30T03:02:46.054Z,100067.65
2023-12-30T03:05:13.156Z,100067.12
2023-12-30T03:07:39.946Z,100074.98
2023-12-30T03:10:08.259Z,100078.24
2023-12-30T03:12:35.122Z,100077.91
2023-12-30T03:15:01.614Z,100083.89
2023-12-30T03:17:28.911Z,100092.11
2023-12-30T03:19:56.096Z,100088.35
2023-12-30T03:22:23.131Z,100084.56
2023-12-30T03:24:49.870Z,100086.79
2023-12-30T03:27:16.632Z,100088.83
2023-12-30T03:29:44.715Z,100093.10
2023-12-30T03:32:11.520Z,100093.09
2023-12-30T03:34:38.442Z,100097.36
2023-12-30T03:37:05.155Z,100099.07
2023-12-30T03:39:31.839Z,100100.09
2023-12-30T03:41:58.533Z,100094.61
2023-12-30T03:44:25.505Z,100097.52
2023-12-30T03:46:52.334Z,100096.83
2023-12-30T03:49:19.055Z,100099.02
2023-12-30T03:51:46.247Z,100100.89
2023-12-30T03:54:13.175Z,100109.60
2023-12-30T03:56:41.702Z,100111.30
2023-12-30T03:59:08.559Z,100112.33
2023-12-30T04:01:35.234Z,100110.23
2023-12-30T04:04:01.991Z,100115.21
2023-12-30T04:06:28.941Z,100114.54
2023-12-30T04:08:55.459Z,100114.89
2023-12-30T04:11:21.945Z,100117.30
2023-12-30T04:13:49.075Z,100115.95
2023-12-30T04:16:15.834Z,100110.51
2023-12-30T04:18:42.552Z,100111.73
2023-12-30T04:21:09.355Z,100110.04
2023-12-30T04:23:36.338Z,100113.63
2023-12-30T04:26:03.487Z,100116.38
2023-12-30T04:28:30.315Z,100113.65
2023-12-30T04:30:57.808Z,100117.41
2023-12-30T04:33:24.663Z,100119.84
2023-12-30T04:35:51.231Z,100121.22
2023-12-30T04:38:19.647Z,100123.78
2023-12-30T04:40:47.616Z,100125.69
2023-12-30T04:43:15.529Z,100122.95
2023-12-30T04:45:42.584Z,100120.90
2023-12-30T04:48:09.251Z,100121.38
2023-12-30T04:50:37.196Z,100125.48
2023-12-30T04:53:04.261Z,100123.09
2023-12-30T04:55:31.486Z,100124.44
2023-12-30T04:57:58.533Z,100131.98
2023-12-30T05:00:25.655Z,100139.49
2023-12-30T05:02:52.800Z,100144.13
2023-12-30T05:05:19.814Z,100147.38
2023-12-30T05:07:46.742Z,100147.72
2023-12-30T05:10:13.536Z,100149.27
2023-12-30T05:12:40.746Z,100153.55
2023-12-30T05:15:08.436Z,100152.36
2023-12-30T05:17:36.553Z,100154.94
2023-12-30T05:20:04.954Z,100154.77
2023-12-30T05:22:31.804Z,100162.30
2023-12-30T05:24:58.529Z,100165.38
2023-12-30T05:27:25.915Z,100158.88
2023-12-30T05:29:52.635Z,100166.77
2023-12-30T05:32:19.888Z,100171.55
2023-12-30T05:34:46.632Z,100171.89
2023-12-30T05:37:13.400Z,100171.73
2023-12-30T05:39:40.343Z,100171.06
2023-12-30T05:42:07.335Z,100171.58
2023-12-30T05:44:34.298Z,100171.59
2023-12-30T05:47:00.794Z,100175.52
2023-12-30T05:49:28.039Z,100182.90
2023-12-30T05:51:54.900Z,100185.13
2023-12-30T05:54:22.559Z,100184.80
2023-12-30T05:56:49.179Z,100186.53
2023-12-30T05:59:16.363Z,100192.69
2023-12-30T06:01:46.093Z,100197.67
2023-12-30T06:04:15.400Z,100206.06
2023-12-30T06:06:43.747Z,100210.16
2023-12-30T06:09:11.091Z,100205.89
2023-12-30T06:11:37.660Z,100204.02
2023-12-30T06:14:05.246Z,100214.80
2023-12-30T06:16:32.048Z,100214.14
2023-12-30T06:18:59.270Z,100221.15
2023-12-30T06:21:26.481Z,100219.27
2023-12-30T06:23:53.260Z,100219.95
2023-12-30T06:26:19.900Z,100222.86
2023-12-30T06:28:46.715Z,100222.17
2023-12-30T06:31:13.482Z,100223.03
2023-12-30T06:33:41.237Z,100226.29
2023-12-30T06:36:08.969Z,100226.97
2023-12-30T06:38:36.912Z,100226.63
2023-12-30T06:41:07.349Z,100227.13
2023-12-30T06:43:34.289Z,100231.91
2023-12-30T06:46:04.948Z,100235.31
2023-12-30T06:48:32.117Z,100239.06
2023-12-30T06:51:02.030Z,100245.04
2023-12-30T06:53:31.321Z,100253.60
2023-12-30T06:56:10.146Z,100260.11
2023-12-30T06:58:37.586Z,100260.45
2023-12-30T07:01:06.303Z,100265.08
2023-12-30T07:03:33.590Z,100264.05
2023-12-30T07:06:00.148Z,100263.88
2023-12-30T07:08:26.878Z,100263.53
2023-12-30T07:10:53.778Z,100264.73
2023-12-30T07:13:20.542Z,100267.80
2023-12-30T07:15:48.688Z,100265.92
2023-12-30T07:18:15.318Z,100272.77
2023-12-30T07:20:42.880Z,100264.70
2023-12-30T07:23:09.643Z,100267.08
2023-12-30T07:25:37.179Z,100272.38
2023-12-30T07:28:05.055Z,100278.88
2023-12-30T07:30:31.879Z,100285.54
2023-12-30T07:32:58.755Z,100283.63
2023-12-30T07:35:25.614Z,100277.64
2023-12-30T07:37:52.103Z,100274.55
2023-12-30T07:40:18.682Z,100281.74
2023-12-30T07:42:46.195Z,100279.35
2023-12-30T07:45:12.831Z,100284.52
2023-12-30T07:47:40.825Z,100286.05
2023-12-30T07:50:08.452Z,100285.38
2023-12-30T07:52:35.783Z,100291.58
2023-12-30T07:55:02.800Z,100295.19
2023-12-30T07:57:29.788Z,100294.87
2023-12-30T07:59:56.710Z,100300.02
2023-12-30T08:02:23.722Z,100297.64
2023-12-30T08:04:50.405Z,100298.36
2023-12-30T08:07:18.135Z,100301.80
2023-12-30T08:09:44.676Z,100303.52
2023-12-30T08:12:11.351Z,100306.96
2023-12-30T08:14:39.287Z,100301.48
2023-12-30T08:17:05.974Z,100303.73
2023-12-30T08:19:33.098Z,100301.17
2023-12-30T08:22:00.070Z,100290.40
2023-12-30T08:24:29.817Z,100293.52
2023-12-30T08:26:56.747Z,100285.13
2023-12-30T08:29:23.379Z,100288.58
2023-12-30T08:31:50.736Z,100295.81
2023-12-30T08:34:17.949Z,100307.30
2023-12-30T08:36:45.241Z,100300.47
2023-12-30T08:39:12.904Z,100300.30
2023-12-30T08:41:42.728Z,100297.06
2023-12-30T08:44:09.504Z,100301.54
2023-12-30T08:46:37.753Z,100310.30
2023-12-30T08:49:07.399Z,100306.36
2023-12-30T08:51:36.177Z,100306.03
2023-12-30T08:54:02.854Z,100307.76
2023-12-30T08:56:35.643Z,100307.08
2023-12-30T08:59:02.941Z,100311.21
2023-12-30T09:01:30.550Z,100310.87
2023-12-30T09:03:57.651Z,100306.93
2023-12-30T09:06:24.690Z,100307.45
2023-12-30T09:08:51.698Z,100307.98
2023-12-30T09:11:23.465Z,100306.09
2023-12-30T09:13:51.441Z,100312.78
2023-12-30T09:16:18.919Z,100311.74
2023-12-30T09:18:46.304Z,100317.41
2023-12-30T09:21:14.052Z,100322.20
2023-12-30T09:23:41.929Z,100322.39
2023-12-30T09:26:08.686Z,100324.96
2023-12-30T09:28:35.943Z,100328.91
2023-12-30T09:31:03.632Z,100332.02
2023-12-30T09:33:31.001Z,100339.25
2023-12-30T09:35:59.342Z,100343.71
2023-12-30T09:38:26.997Z,100348.02
2023-12-30T09:40:55.957Z,100353.00
2023-12-30T09:43:28.248Z,100352.48
2023-12-30T09:45:57.112Z,100360.20
2023-12-30T09:48:28.772Z,100361.04
2023-12-30T09:50:57.400Z,100361.20
2023-12-30T09:53:29.099Z,100368.42
2023-12-30T09:55:56.709Z,100370.64
2023-12-30T09:58:24.439Z,100376.80
2023-12-30T10:00:51.561Z,100381.09
2023-12-30T10:03:20.362Z,100383.48
2023-12-30T10:05:48.556Z,100383.82
2023-12-30T10:08:16.862Z,100374.52
2023-12-30T10:10:46.894Z,100373.46
2023-12-30T10:13:16.194Z,100379.64
2023-12-30T10:15:43.598Z,100383.25
2023-12-30T10:18:11.671Z,100384.60
2023-12-30T10:20:42.002Z,100382.56
2023-12-30T10:23:08.969Z,100379.63
2023-12-30T10:25:36.088Z,100376.84
2023-12-30T10:28:03.433Z,100372.33
2023-12-30T10:30:32.379Z,100369.71
2023-12-30T10:33:15.073Z,100371.75
2023-12-30T10:35:44.350Z,100369.85
2023-12-30T10:38:14.054Z,100366.03
2023-12-30T10:40:42.260Z,100370.48
2023-12-30T10:43:10.033Z,100366.17
2023-12-30T10:45:37.534Z,100363.08
2023-12-30T10:48:07.601Z,100361.86
2023-12-30T10:50:40.217Z,100363.10
2023-12-30T10:53:11.974Z,100358.46
2023-12-30T10:55:51.605Z,100354.48
2023-12-30T10:58:26.261Z,100356.02
2023-12-30T11:00:58.467Z,100348.96
2023-12-30T11:03:27.634Z,100345.17
2023-12-30T11:06:08.457Z,100353.81
2023-12-30T11:08:36.056Z,100352.33
2023-12-30T11:11:05.302Z,100349.95
2023-12-30T11:13:36.539Z,100355.91
2023-12-30T11:16:17.359Z,100345.02
2023-12-30T11:18:52.297Z,100342.55
2023-12-30T11:21:39.706Z,100337.82
2023-12-30T11:24:09.096Z,100332.05
2023-12-30T11:26:39.284Z,100326.49
2023-12-30T11:29:11.497Z,100319.11
2023-12-30T11:31:42.534Z,100319.17
2023-12-30T11:34:11.440Z,100318.56
2023-12-30T11:36:38.984Z,100315.70
2023-12-30T11:39:07.524Z,100314.27
2023-12-30T11:41:35.854Z,100318.99
2023-12-30T11:44:07.220Z,100313.86
2023-12-30T11:46:34.973Z,100311.98
2023-12-30T11:49:01.967Z,100308.81
2023-12-30T11:51:33.555Z,100305.33
2023-12-30T11:54:06.269Z,100301.74
2023-12-30T11:56:34.057Z,100301.13
2023-12-30T11:59:01.972Z,100293.60
2023-12-30T12:01:29.354Z,100294.27
2023-12-30T12:03:57.590Z,100291.30
2023-12-30T12:06:24.398Z,100286.74
2023-12-30T12:08:51.114Z,100280.17
2023-12-30T12:11:17.893Z,100279.81
2023-12-30T12:13:46.814Z,100279.94
2023-12-30T12:16:14.032Z,100280.66
2023-12-30T12:18:41.800Z,100272.13
2023-12-30T12:21:16.129Z,100273.04
2023-12-30T12:23:43.525Z,100276.63
2023-12-30T12:26:10.718Z,100281.95
2023-12-30T12:28:37.533Z,100280.86
2023-12-30T12:31:07.421Z,100278.00
2023-12-30T12:33:36.499Z,100285.61
2023-12-30T12:36:04.064Z,100273.57
2023-12-30T12:38:30.824Z,100277.89
2023-12-30T12:40:57.461Z,100274.94
2023-12-30T12:43:24.193Z,100279.66
2023-12-30T12:45:51.623Z,100283.02
2023-12-30T12:48:18.239Z,100276.85
2023-12-30T12:50:44.861Z,100273.39
2023-12-30T12:53:11.610Z,100271.52
2023-12-30T12:55:38.498Z,100265.84
2023-12-30T12:58:05.096Z,100258.05
2023-12-30T13:00:33.078Z,100251.82
2023-12-30T13:03:02.047Z,100249.58
2023-12-30T13:05:29.278Z,100257.08
2023-12-30T13:07:57.357Z,100253.15
2023-12-30T13:10:33.101Z,100249.70
2023-12-30T13:13:01.311Z,100248.05
2023-12-30T13:15:28.368Z,100246.22
2023-12-30T13:17:55.413Z,100248.34
2023-12-30T13:20:22.605Z,100238.05
2023-12-30T13:22:57.511Z,100236.33
2023-12-30T13:25:31.387Z,100236.97
2023-12-30T13:27:59.948Z,100238.55
2023-12-30T13:30:27.212Z,100234.66
2023-12-30T13:33:02.605Z,100233.91
2023-12-30T13:35:38.929Z,100228.27
2023-12-30T13:38:12.897Z,100233.27
2023-12-30T13:40:43.311Z,100233.39
2023-12-30T13:43:10.883Z,100234.02
2023-12-30T13:45:46.800Z,100234.84
2023-12-30T13:48:38.984Z,100232.50
2023-12-30T13:51:08.402Z,100227.52
2023-12-30T13:53:35.065Z,100226.17
2023-12-30T13:56:07.180Z,100228.00
2023-12-30T13:58:35.177Z,100225.52
2023-12-30T14:01:02.085Z,100224.42
2023-12-30T14:03:29.731Z,100225.10
2023-12-30T14:05:57.375Z,100225.95
2023-12-30T14:08:37.429Z,100224.40
2023-12-30T14:11:09.048Z,100226.03
2023-12-30T14:13:37.200Z,100221.33
2023-12-30T14:16:05.815Z,100221.63
2023-12-30T14:18:32.904Z,100222.20
2023-12-30T14:20:59.969Z,100219.41
2023-12-30T14:23:28.861Z,100215.56
2023-12-30T14:25:55.847Z,100221.60
2023-12-30T14:28:22.825Z,100223.86
2023-12-30T14:30:50.519Z,100221.45
2023-12-30T14:33:17.513Z,100221.73
2023-12-30T14:35:44.647Z,100221.52
2023-12-30T14:38:11.245Z,100225.98
2023-12-30T14:40:37.820Z,100222.86
2023-12-30T14:43:05.051Z,100221.25
2023-12-30T14:45:32.286Z,100222.53
2023-12-30T14:48:01.082Z,100223.44
2023-12-30T14:50:28.038Z,100222.64
2023-12-30T14:52:54.990Z,100223.19
2023-12-30T14:55:21.554Z,100227.71
2023-12-30T14:57:49.776Z,100223.99
2023-12-30T15:00:18.153Z,100225.41
2023-12-30T15:02:45.805Z,100220.16
2023-12-30T15:05:16.817Z,100220.57
2023-12-30T15:07:45.607Z,100218.57
2023-12-30T15:10:14.950Z,100217.23
2023-12-30T15:12:44.684Z,100216.63
2023-12-30T15:15:13.632Z,100217.20
2023-12-30T15:17:40.542Z,100221.20
2023-12-30T15:20:09.073Z,100226.58
2023-12-30T15:22:36.831Z,100228.16
2023-12-30T15:25:04.324Z,100229.05
2023-12-30T15:27:32.715Z,100229.06
2023-12-30T15:29:59.414Z,100229.61
2023-12-30T15:32:26.284Z,100224.13
2023-12-30T15:34:53.359Z,100227.06
2023-12-30T15:37:20.183Z,100224.35
2023-12-30T15:39:46.985Z,100223.85
2023-12-30T15:42:13.861Z,100217.86
2023-12-30T15:44:40.932Z,100219.25
2023-12-30T15:47:10.982Z,100220.64
2023-12-30T15:49:42.728Z,100216.00
2023-12-30T15:52:11.634Z,100217.36
2023-12-30T15:54:39.815Z,100212.05
2023-12-30T15:57:06.982Z,100214.28
2023-12-30T15:59:33.883Z,100207.60
2023-12-30T16:02:02.276Z,100211.20
2023-12-30T16:04:29.285Z,100208.80
2023-12-30T16:06:57.098Z,100203.81
2023-12-30T16:09:23.721Z,100198.52
2023-12-30T16:11:50.765Z,100195.26
2023-12-30T16:14:18.210Z,100195.09
2023-12-30T16:16:46.668Z,100198.34
2023-12-30T16:19:16.585Z,100192.68
2023-12-30T16:21:44.603Z,100192.34
2023-12-30T16:24:12.966Z,100187.02
2023-12-30T16:26:39.901Z,100187.38
2023-12-30T16:29:07.062Z,100185.83
2023-12-30T16:31:33.823Z,100185.99
2023-12-30T16:34:00.752Z,100182.75
2023-12-30T16:36:27.549Z,100180.68
2023-12-30T16:38:55.593Z,100177.59
2023-12-30T16:41:23.995Z,100180.51
2023-12-30T16:43:51.400Z,100176.39
2023-12-30T16:46:22.313Z,100177.93
2023-12-30T16:48:49.115Z,100171.59
2023-12-30T16:51:16.458Z,100171.06
2023-12-30T16:53:44.791Z,100169.86
2023-12-30T16:56:11.501Z,100172.26
2023-12-30T16:58:40.647Z,100174.33
2023-12-30T17:01:07.908Z,100171.94
2023-12-30T17:03:34.545Z,100169.18
2023-12-30T17:06:02.072Z,100169.88
2023-12-30T17:08:29.709Z,100164.05
2023-12-30T17:10:56.399Z,100166.45
2023-12-30T17:13:31.178Z,100157.02
2023-12-30T17:16:02.758Z,100154.61
2023-12-30T17:18:29.546Z,100152.40
2023-12-30T17:20:56.563Z,100148.27
2023-12-30T17:23:23.935Z,100145.19
2023-12-30T17:25:50.809Z,100145.02
2023-12-30T17:28:18.273Z,100138.15
2023-12-30T17:30:45.101Z,100140.21
2023-12-30T17:33:13.138Z,100142.60
2023-12-30T17:35:40.391Z,100144.65
2023-12-30T17:38:07.179Z,100150.98
2023-12-30T17:40:34.710Z,100148.58
2023-12-30T17:43:01.974Z,100149.77
2023-12-30T17:45:30.674Z,100147.36
2023-12-30T17:47:57.772Z,100146.16
2023-12-30T17:50:24.721Z,100144.25
2023-12-30T17:52:51.341Z,100141.69
2023-12-30T17:55:17.994Z,100136.36
2023-12-30T17:57:46.364Z,100136.70
2023-12-30T18:00:13.645Z,100136.86
2023-12-30T18:02:40.915Z,100136.69
2023-12-30T18:05:08.239Z,100142.84
2023-12-30T18:07:35.208Z,100144.89
2023-12-30T18:10:02.891Z,100142.31
2023-12-30T18:12:29.631Z,100147.45
2023-12-30T18:14:56.341Z,100142.65
2023-12-30T18:17:23.722Z,100143.86
2023-12-30T18:19:50.838Z,100148.13
2023-12-30T18:22:18.030Z,100148.45
2023-12-30T18:24:45.192Z,100151.37
2023-12-30T18:27:12.888Z,100156.84
2023-12-30T18:29:39.731Z,100155.13
2023-12-30T18:32:08.630Z,100155.63
2023-12-30T18:34:35.562Z,100160.42
2023-12-30T18:37:02.632Z,100164.52
2023-12-30T18:39:30.222Z,100158.17
2023-12-30T18:41:56.829Z,100160.06
2023-12-30T18:44:23.719Z,100158.35
2023-12-30T18:46:50.355Z,100158.70
2023-12-30T18:49:17.866Z,100154.91
2023-12-30T18:51:44.719Z,100155.10
2023-12-30T18:54:11.524Z,100155.27
2023-12-30T18:56:38.211Z,100154.92
2023-12-30T18:59:06.127Z,100152.54
2023-12-30T19:01:33.144Z,100150.15
2023-12-30T19:04:03.274Z,100150.33
2023-12-30T19:06:31.075Z,100147.94
2023-12-30T19:08:57.642Z,100147.44
2023-12-30T19:11:24.538Z,100146.23
2023-12-30T19:13:51.783Z,100146.26
2023-12-30T19:16:18.876Z,100141.80
2023-12-30T19:18:45.556Z,100133.74
2023-12-30T19:21:12.328Z,100135.98
2023-12-30T19:23:38.850Z,100132.39
2023-12-30T19:26:05.752Z,100131.88
2023-12-30T19:28:32.734Z,100129.15
2023-12-30T19:31:00.028Z,100129.17
2023-12-30T19:33:27.928Z,100127.28
2023-12-30T19:35:55.111Z,100125.40
2023-12-30T19:38:22.443Z,100116.00
2023-12-30T19:40:51.240Z,100113.92
2023-12-30T19:43:19.585Z,100113.77
2023-12-30T19:45:46.601Z,100115.48
2023-12-30T19:48:13.738Z,100104.34
2023-12-30T19:50:44.316Z,100106.06
2023-12-30T19:53:18.170Z,100103.66
2023-12-30T19:55:47.002Z,100099.23
2023-12-30T19:58:14.074Z,100095.63
2023-12-30T20:00:41.685Z,100095.80
2023-12-30T20:03:12.015Z,100098.89
2023-12-30T20:05:38.843Z,100095.98
2023-12-30T20:08:06.517Z,100099.06
2023-12-30T20:10:33.908Z,100096.33
2023-12-30T20:13:03.266Z,100090.67
2023-12-30T20:15:30.140Z,100087.94
2023-12-30T20:17:57.114Z,100080.23
2023-12-30T20:20:25.599Z,100080.75
2023-12-30T20:22:52.293Z,100075.77
2023-12-30T20:25:21.726Z,100074.73
2023-12-30T20:27:48.462Z,100068.58
2023-12-30T20:30:17.412Z,100065.32
2023-12-30T20:32:44.224Z,100058.80
2023-12-30T20:35:10.959Z,100055.37
2023-12-30T20:37:38.054Z,100053.83
2023-12-30T20:40:07.171Z,100053.32
2023-12-30T20:42:34.671Z,100048.69
2023-12-30T20:45:01.711Z,100042.70
2023-12-30T20:47:28.825Z,100040.29
2023-12-30T20:49:55.366Z,100037.20
2023-12-30T20:52:22.370Z,100033.45
2023-12-30T20:54:49.285Z,100031.21
2023-12-30T20:57:16.078Z,100028.48
2023-12-30T20:59:43.269Z,100025.56
2023-12-30T21:02:09.838Z,100030.53
2023-12-30T21:04:38.606Z,100031.55
2023-12-30T21:07:06.760Z,100029.84
2023-12-30T21:09:34.845Z,100028.48
2023-12-30T21:12:02.091Z,100028.99
2023-12-30T21:14:28.726Z,100027.63
2023-12-30T21:16:56.057Z,100024.20
2023-12-30T21:19:23.361Z,100021.13
2023-12-30T21:21:50.438Z,100016.14
2023-12-30T21:24:17.013Z,100015.80
2023-12-30T21:26:43.983Z,100014.09
2023-12-30T21:29:10.514Z,100011.70
2023-12-30T21:31:37.786Z,100009.46
2023-12-30T21:34:04.789Z,100005.69
2023-12-30T21:36:31.832Z,100003.83
2023-12-30T21:38:58.434Z,100001.23
2023-12-30T21:41:25.027Z,99999.19
2023-12-30T21:43:51.809Z,99997.64
2023-12-30T21:46:18.813Z,99993.88
2023-12-30T21:48:45.774Z,99989.09
2023-12-30T21:51:14.510Z,99984.10
2023-12-30T21:53:45.522Z,99979.82
2023-12-30T21:56:12.399Z,99976.23
2023-12-30T21:58:39.391Z,99976.92
2023-12-30T22:01:06.649Z,99971.96
2023-12-30T22:03:33.486Z,99967.52
2023-12-30T22:06:00.183Z,99966.30
2023-12-30T22:08:27.742Z,99966.81
2023-12-30T22:10:54.854Z,99964.23
2023-12-30T22:13:21.488Z,99965.79
2023-12-30T22:15:48.169Z,99959.98
2023-12-30T22:18:16.525Z,99955.86
2023-12-30T22:20:43.181Z,99954.14
2023-12-30T22:23:12.702Z,99950.38
2023-12-30T22:25:42.679Z,99948.33
2023-12-30T22:28:09.481Z,99945.07
2023-12-30T22:30:36.384Z,99944.38
2023-12-30T22:33:03.388Z,99944.38
2023-12-30T22:35:31.203Z,99942.33
2023-12-30T22:37:57.852Z,99943.18
2023-12-30T22:40:24.628Z,99941.98
2023-12-30T22:42:52.330Z,99946.95
2023-12-30T22:45:19.070Z,99951.06
2023-12-30T22:47:45.761Z,99949.87
2023-12-30T22:50:13.522Z,99941.30
2023-12-30T22:52:41.106Z,99935.65
2023-12-30T22:55:09.130Z,99933.77
2023-12-30T22:57:36.573Z,99931.04
2023-12-30T23:00:14.605Z,99923.83
2023-12-30T23:02:41.180Z,99919.21
2023-12-30T23:05:09.613Z,99915.44
2023-12-30T23:07:37.299Z,99913.05
2023-12-30T23:10:05.679Z,99912.02
2023-12-30T23:12:32.770Z,99912.52
2023-12-30T23:14:59.922Z,99907.56
2023-12-30T23:17:26.821Z,99907.05
2023-12-30T23:19:54.267Z,99904.48
2023-12-30T23:22:21.152Z,99901.55
2023-12-30T23:24:47.907Z,99900.20
2023-12-30T23:27:14.885Z,99894.73
2023-12-30T23:29:42.510Z,99890.09
2023-12-30T23:32:09.278Z,99879.30
2023-12-30T23:34:43.178Z,99878.27
2023-12-30T23:37:16.891Z,99874.52
2023-12-30T23:39:46.069Z,99868.17
2023-12-30T23:42:13.204Z,99859.45
2023-12-30T23:44:40.304Z,99857.05
2023-12-30T23:47:07.104Z,99845.23
2023-12-30T23:49:33.812Z,99840.78
2023-12-30T23:52:01.803Z,99839.24
2023-12-30T23:54:28.680Z,99832.75
2023-12-30T23:56:55.185Z,99820.92
2023-12-30T23:59:22.092Z,99814.93
